Time;durP1;ratioP1;P1;durP2;ratioP2;P2;SDS_P1;SDS_P2;PMS_P1;PMS_P2;Temp;Humidity;BMP_temperature;BMP_pressure;BME280_temperature;BME280_humidity;BME280_pressure;Samples;Min_cycle;Max_cycle;Signal;HPM_P1;HPM_P2
2021/05/22 00:01:08;;;;;;;9.52;2.13;;;12.60;99.90;;;;;;5093902;28;20111;-74
2021/05/22 00:03:34;;;;;;;12.27;2.25;;;12.50;99.90;;;;;;5093364;28;20455;-73
2021/05/22 00:05:59;;;;;;;13.88;2.40;;;12.60;99.90;;;;;;5093716;28;20012;-75
2021/05/22 00:08:25;;;;;;;14.50;2.17;;;12.60;99.90;;;;;;5094129;28;20383;-73
2021/05/22 00:10:51;;;;;;;11.27;2.20;;;12.60;99.90;;;;;;5093199;28;20068;-75
2021/05/22 00:13:16;;;;;;;17.38;2.67;;;12.50;99.90;;;;;;5093621;28;20490;-74
2021/05/22 00:15:43;;;;;;;9.52;1.90;;;12.60;99.90;;;;;;5093421;28;20476;-74
2021/05/22 00:18:09;;;;;;;18.90;2.13;;;12.50;99.90;;;;;;5092333;28;20024;-74
2021/05/22 00:20:34;;;;;;;17.70;2.53;;;12.50;99.90;;;;;;5093407;28;20499;-73
2021/05/22 00:23:00;;;;;;;8.38;2.00;;;12.50;99.90;;;;;;5092936;28;20016;-73
2021/05/22 00:25:26;;;;;;;13.82;2.65;;;12.50;99.90;;;;;;5092831;28;20031;-74
2021/05/22 00:27:52;;;;;;;12.48;1.70;;;12.50;99.90;;;;;;5097519;28;20095;-73
2021/05/22 00:30:17;;;;;;;6.30;2.03;;;12.50;99.90;;;;;;5103186;28;20035;-74
2021/05/22 00:32:43;;;;;;;9.30;2.03;;;12.50;99.90;;;;;;5092449;28;20020;-74
2021/05/22 00:35:09;;;;;;;18.70;3.05;;;12.50;99.90;;;;;;5092815;28;20048;-73
2021/05/22 00:37:35;;;;;;;16.17;2.75;;;12.40;99.90;;;;;;5093161;28;20051;-73
2021/05/22 00:40:00;;;;;;;14.23;2.20;;;12.40;99.90;;;;;;5091982;28;20559;-74
2021/05/22 00:42:26;;;;;;;7.85;1.50;;;12.40;99.90;;;;;;5094654;28;20110;-73
2021/05/22 00:45:11;;;;;;;5.93;1.35;;;12.40;99.90;;;;;;5094464;28;20404;-74
2021/05/22 00:47:38;;;;;;;12.60;3.15;;;12.40;99.90;;;;;;5092180;28;20483;-73
2021/05/22 00:50:07;;;;;;;8.30;1.55;;;12.30;99.90;;;;;;5092523;28;20368;-73
2021/05/22 00:52:33;;;;;;;15.02;2.15;;;12.30;99.90;;;;;;5092874;28;20060;-73
2021/05/22 00:54:58;;;;;;;9.82;2.38;;;12.30;99.90;;;;;;5091852;28;20066;-74
2021/05/22 00:57:25;;;;;;;10.43;1.73;;;12.20;99.90;;;;;;5092500;28;20073;-74
2021/05/22 00:59:51;;;;;;;8.70;2.08;;;12.20;99.90;;;;;;5091906;28;20034;-74
2021/05/22 01:02:25;;;;;;;9.15;2.08;;;12.10;99.90;;;;;;5092166;28;20031;-74
2021/05/22 01:04:51;;;;;;;6.60;1.58;;;12.10;99.90;;;;;;5091758;28;20031;-74
2021/05/22 01:07:17;;;;;;;12.52;2.08;;;12.00;99.90;;;;;;5091220;28;20460;-74
2021/05/22 01:09:45;;;;;;;8.98;1.92;;;11.90;99.90;;;;;;5091983;28;20052;-74
2021/05/22 01:12:13;;;;;;;13.82;1.95;;;11.90;99.90;;;;;;5090849;28;20088;-74
2021/05/22 01:14:46;;;;;;;9.90;1.55;;;11.90;99.90;;;;;;5091300;28;20036;-74
2021/05/22 01:17:15;;;;;;;6.28;1.38;;;11.80;99.90;;;;;;5092002;28;20028;-75
2021/05/22 01:19:42;;;;;;;11.90;1.80;;;11.80;99.90;;;;;;5091729;28;20538;-73
2021/05/22 01:22:10;;;;;;;15.52;2.00;;;11.70;99.90;;;;;;5090744;28;20357;-73
2021/05/22 01:24:55;;;;;;;6.63;1.92;;;11.70;99.90;;;;;;5120294;27;20024;-73
2021/05/22 01:27:21;;;;;;;8.30;1.38;;;11.70;99.90;;;;;;5091331;28;20040;-74
2021/05/22 01:29:47;;;;;;;10.27;1.75;;;11.60;99.90;;;;;;5090697;28;20042;-73
2021/05/22 01:32:13;;;;;;;9.95;2.03;;;11.60;99.90;;;;;;5091627;28;20024;-74
2021/05/22 01:34:39;;;;;;;5.70;1.58;;;11.60;99.90;;;;;;5090984;28;20052;-74
2021/05/22 01:37:05;;;;;;;5.72;1.60;;;11.40;99.90;;;;;;5090758;28;20020;-73
2021/05/22 01:39:31;;;;;;;7.25;1.40;;;11.50;99.90;;;;;;5091351;28;20415;-73
2021/05/22 01:41:57;;;;;;;6.18;1.23;;;11.50;99.90;;;;;;5090162;28;20427;-73
2021/05/22 01:44:24;;;;;;;7.00;1.60;;;11.50;99.90;;;;;;5090906;28;20046;-74
2021/05/22 01:46:51;;;;;;;8.05;1.60;;;11.40;99.90;;;;;;5091229;28;20066;-75
2021/05/22 01:49:17;;;;;;;10.32;2.42;;;11.40;99.90;;;;;;5090692;28;20024;-73
2021/05/22 01:51:45;;;;;;;7.20;1.75;;;11.40;99.90;;;;;;5091249;28;20024;-74
2021/05/22 01:54:12;;;;;;;7.68;1.58;;;11.40;99.90;;;;;;5090829;28;20182;-74
2021/05/22 01:56:40;;;;;;;4.03;1.42;;;11.50;99.90;;;;;;5090562;28;20044;-73
2021/05/22 01:59:06;;;;;;;11.98;1.83;;;11.40;99.90;;;;;;5091118;28;20039;-74
2021/05/22 02:01:32;;;;;;;10.77;1.52;;;11.50;99.90;;;;;;5091732;28;20368;-73
2021/05/22 02:04:04;;;;;;;10.95;1.80;;;11.50;99.90;;;;;;5090744;28;20074;-74
2021/05/22 02:06:35;;;;;;;13.98;2.10;;;11.50;99.90;;;;;;5092959;28;20020;-74
2021/05/22 02:09:04;;;;;;;8.10;1.10;;;11.60;99.90;;;;;;5091226;28;20047;-75
2021/05/22 02:11:33;;;;;;;16.85;2.00;;;11.50;99.90;;;;;;5091160;28;20031;-73
2021/05/22 02:14:01;;;;;;;11.63;1.75;;;11.60;99.90;;;;;;5091615;28;20218;-73
2021/05/22 02:16:29;;;;;;;10.00;1.67;;;11.60;99.90;;;;;;5091519;28;20034;-73
2021/05/22 02:18:55;;;;;;;7.70;1.48;;;11.60;99.90;;;;;;5090688;28;20043;-73
2021/05/22 02:21:27;;;;;;;11.52;1.77;;;11.60;99.90;;;;;;5092010;28;20426;-73
2021/05/22 02:23:53;;;;;;;10.43;1.60;;;11.60;99.90;;;;;;5095760;28;20035;-73
2021/05/22 02:26:25;;;;;;;5.90;1.77;;;11.60;99.90;;;;;;5095479;28;20115;-73
2021/05/22 02:28:52;;;;;;;3.58;1.27;;;11.70;99.90;;;;;;5095841;28;20390;-74
2021/05/22 02:31:19;;;;;;;7.60;1.50;;;11.70;99.90;;;;;;5110002;28;20020;-74
2021/05/22 02:33:49;;;;;;;11.48;2.15;;;11.70;99.90;;;;;;5095997;28;20047;-74
2021/05/22 02:36:14;;;;;;;6.82;1.35;;;11.70;99.90;;;;;;5096979;28;20031;-73
2021/05/22 02:38:49;;;;;;;10.77;2.00;;;11.70;99.90;;;;;;5095896;28;20020;-73
2021/05/22 02:41:16;;;;;;;7.05;2.08;;;11.70;99.90;;;;;;5095744;28;20024;-74
2021/05/22 02:43:45;;;;;;;6.90;2.00;;;11.70;99.90;;;;;;5095322;28;20028;-73
2021/05/22 02:46:13;;;;;;;6.90;1.52;;;11.70;99.90;;;;;;5094309;28;20027;-73
2021/05/22 02:48:38;;;;;;;5.15;1.30;;;11.60;99.90;;;;;;5095055;28;20058;-73
2021/05/22 02:51:10;;;;;;;9.98;1.73;;;11.60;99.90;;;;;;5094906;28;20101;-74
2021/05/22 02:53:37;;;;;;;8.00;1.55;;;11.60;99.90;;;;;;5094537;28;20121;-74
2021/05/22 02:56:05;;;;;;;6.65;1.90;;;11.60;99.90;;;;;;5094874;28;20016;-74
2021/05/22 02:58:36;;;;;;;6.97;1.80;;;11.60;99.90;;;;;;5094760;28;20112;-74
2021/05/22 03:01:03;;;;;;;9.02;2.10;;;11.60;99.90;;;;;;5093978;28;20020;-73
2021/05/22 03:03:29;;;;;;;6.28;1.40;;;11.60;99.90;;;;;;5094867;28;20093;-73
2021/05/22 03:05:56;;;;;;;4.22;1.80;;;11.50;99.90;;;;;;5094969;28;20055;-74
2021/05/22 03:08:21;;;;;;;12.38;1.40;;;11.50;99.90;;;;;;5094303;28;20515;-73
2021/05/22 03:10:47;;;;;;;5.35;1.50;;;11.50;99.90;;;;;;5094404;28;20063;-74
2021/05/22 03:13:13;;;;;;;17.15;1.70;;;11.40;99.90;;;;;;5094780;28;20119;-73
2021/05/22 03:15:38;;;;;;;7.95;3.05;;;11.40;99.90;;;;;;5093950;28;20468;-74
2021/05/22 03:18:04;;;;;;;5.22;1.73;;;11.30;99.90;;;;;;5094371;28;20020;-73
2021/05/22 03:20:29;;;;;;;7.65;1.92;;;11.40;99.90;;;;;;5094138;28;20103;-73
2021/05/22 03:22:55;;;;;;;11.32;2.50;;;11.30;99.90;;;;;;5094598;28;20026;-73
2021/05/22 03:25:21;;;;;;;4.43;1.60;;;11.30;99.90;;;;;;5094626;28;20464;-73
2021/05/22 03:27:46;;;;;;;8.45;2.15;;;11.30;99.90;;;;;;5093307;28;20020;-74
2021/05/22 03:30:12;;;;;;;5.20;2.05;;;11.30;99.90;;;;;;5094479;28;20441;-74
2021/05/22 03:32:38;;;;;;;8.90;2.10;;;11.30;99.90;;;;;;5094062;28;20475;-73
2021/05/22 03:35:05;;;;;;;8.88;1.85;;;11.30;99.90;;;;;;5092263;28;20073;-74
2021/05/22 03:37:30;;;;;;;5.82;1.73;;;11.20;99.90;;;;;;5094163;28;20380;-74
2021/05/22 03:39:56;;;;;;;8.32;1.75;;;11.20;99.90;;;;;;5093987;28;20024;-74
2021/05/22 03:42:21;;;;;;;10.93;1.98;;;11.10;99.90;;;;;;5093406;28;20027;-74
2021/05/22 03:44:47;;;;;;;6.72;1.80;;;11.20;99.90;;;;;;5093740;28;20016;-74
2021/05/22 03:47:12;;;;;;;2.47;1.60;;;11.10;99.90;;;;;;5094019;28;20020;-74
2021/05/22 03:49:38;;;;;;;7.65;1.92;;;11.10;99.90;;;;;;5093579;28;20024;-75
2021/05/22 03:52:04;;;;;;;7.70;2.00;;;11.10;99.90;;;;;;5093786;28;20020;-74
2021/05/22 03:54:30;;;;;;;3.72;1.70;;;11.10;99.90;;;;;;5094111;28;20122;-74
2021/05/22 03:56:55;;;;;;;6.50;2.33;;;11.10;99.90;;;;;;5093241;28;20095;-75
2021/05/22 03:59:21;;;;;;;4.57;1.77;;;11.10;99.90;;;;;;5093794;28;20103;-74
2021/05/22 04:01:49;;;;;;;9.13;1.98;;;11.10;99.90;;;;;;5093396;28;20019;-75
2021/05/22 04:04:15;;;;;;;6.80;2.63;;;11.10;99.90;;;;;;5093295;28;20027;-75
2021/05/22 04:06:41;;;;;;;9.45;1.77;;;11.00;99.90;;;;;;5093342;28;20032;-75
2021/05/22 04:09:06;;;;;;;5.40;1.90;;;11.10;99.90;;;;;;5093527;28;20030;-77
2021/05/22 04:11:32;;;;;;;7.60;1.90;;;11.00;99.90;;;;;;5093431;28;20024;-75
2021/05/22 04:13:58;;;;;;;9.05;3.00;;;11.00;99.90;;;;;;5097136;28;20039;-75
2021/05/22 04:16:23;;;;;;;6.18;1.98;;;11.00;99.90;;;;;;5104195;28;20072;-75
2021/05/22 04:18:49;;;;;;;5.25;1.60;;;11.00;99.90;;;;;;5092870;28;20031;-75
2021/05/22 04:21:14;;;;;;;5.70;1.85;;;11.00;99.90;;;;;;5093690;28;20421;-75
2021/05/22 04:23:40;;;;;;;5.32;1.58;;;11.00;99.90;;;;;;5093151;28;20138;-75
2021/05/22 04:26:06;;;;;;;7.93;2.00;;;11.00;99.90;;;;;;5093007;28;21035;-74
2021/05/22 04:28:32;;;;;;;4.53;2.05;;;11.00;99.90;;;;;;5105122;28;20038;-74
2021/05/22 04:30:57;;;;;;;4.10;2.45;;;11.00;99.90;;;;;;5094621;28;20024;-74
2021/05/22 04:33:23;;;;;;;5.78;2.20;;;11.00;99.90;;;;;;5092855;28;20039;-75
2021/05/22 04:35:48;;;;;;;2.63;1.80;;;11.00;99.90;;;;;;5092926;28;20038;-74
2021/05/22 04:38:14;;;;;;;9.20;2.55;;;11.00;99.90;;;;;;5092613;28;20053;-75
2021/05/22 04:40:39;;;;;;;11.85;2.45;;;11.00;99.90;;;;;;5093513;28;20030;-75
2021/05/22 04:43:05;;;;;;;7.88;1.95;;;11.00;99.90;;;;;;5092552;28;20024;-75
2021/05/22 04:45:31;;;;;;;9.13;2.40;;;10.90;99.90;;;;;;5092483;28;20440;-75
2021/05/22 04:47:56;;;;;;;6.10;1.88;;;10.90;99.90;;;;;;5092847;28;20028;-75
2021/05/22 04:50:25;;;;;;;4.97;2.50;;;10.90;99.90;;;;;;5092949;28;20103;-74
2021/05/22 04:52:50;;;;;;;4.85;2.38;;;10.90;99.90;;;;;;5091926;28;20380;-75
2021/05/22 04:55:16;;;;;;;10.45;1.95;;;10.80;99.90;;;;;;5092664;28;20032;-74
2021/05/22 04:57:41;;;;;;;4.47;1.77;;;10.90;99.90;;;;;;5092762;28;20035;-75
2021/05/22 05:00:08;;;;;;;5.00;1.92;;;10.80;99.90;;;;;;5091771;28;20413;-74
2021/05/22 05:02:33;;;;;;;9.38;1.98;;;10.80;99.90;;;;;;5092956;28;20016;-75
2021/05/22 05:04:59;;;;;;;4.90;2.33;;;10.80;99.90;;;;;;5092617;28;20035;-75
2021/05/22 05:07:25;;;;;;;5.38;1.92;;;10.80;99.90;;;;;;5106458;28;20091;-75
2021/05/22 05:09:51;;;;;;;4.38;2.10;;;10.80;99.90;;;;;;5092641;28;20024;-75
2021/05/22 05:12:17;;;;;;;5.75;2.65;;;10.80;99.90;;;;;;5092485;28;20020;-75
2021/05/22 05:14:43;;;;;;;6.28;2.30;;;10.80;99.90;;;;;;5091671;28;20101;-74
2021/05/22 05:17:08;;;;;;;7.05;2.65;;;10.80;99.90;;;;;;5092116;28;20557;-75
2021/05/22 05:19:34;;;;;;;6.75;2.28;;;10.80;99.90;;;;;;5092788;28;20055;-75
2021/05/22 05:22:02;;;;;;;8.68;2.50;;;10.80;99.90;;;;;;5091501;28;20067;-75
2021/05/22 05:24:28;;;;;;;7.07;2.30;;;10.80;99.90;;;;;;5092678;28;20047;-75
2021/05/22 05:26:54;;;;;;;4.78;1.90;;;10.80;99.90;;;;;;5092259;28;20023;-74
2021/05/22 05:29:19;;;;;;;5.70;2.30;;;10.80;99.90;;;;;;5091504;28;20021;-75
2021/05/22 05:31:45;;;;;;;5.97;2.72;;;10.80;99.90;;;;;;5102795;28;20427;-74
2021/05/22 05:34:11;;;;;;;5.47;2.60;;;10.80;99.90;;;;;;5094991;28;20096;-75
2021/05/22 05:36:37;;;;;;;9.38;2.80;;;10.80;99.90;;;;;;5092257;28;20381;-75
2021/05/22 05:39:04;;;;;;;6.00;2.80;;;10.80;99.90;;;;;;5091864;28;20195;-76
2021/05/22 05:41:29;;;;;;;4.28;2.50;;;10.80;99.90;;;;;;5091433;28;20016;-75
2021/05/22 05:43:55;;;;;;;6.82;2.90;;;10.80;99.90;;;;;;5096385;28;20038;-75
2021/05/22 05:46:22;;;;;;;3.33;2.20;;;10.80;99.90;;;;;;5100958;28;20024;-77
2021/05/22 05:48:47;;;;;;;5.43;3.55;;;10.90;99.90;;;;;;5092151;28;20039;-75
2021/05/22 05:51:13;;;;;;;6.82;2.22;;;10.80;99.90;;;;;;5093793;28;20099;-76
2021/05/22 05:53:39;;;;;;;9.15;2.42;;;10.90;99.90;;;;;;5107284;28;20076;-77
2021/05/22 05:56:05;;;;;;;5.15;2.78;;;10.90;99.90;;;;;;5126683;27;20026;-77
2021/05/22 05:58:32;;;;;;;5.75;2.30;;;10.90;99.90;;;;;;5098900;28;20020;-77
2021/05/22 06:00:57;;;;;;;3.90;2.30;;;10.90;99.90;;;;;;5125577;28;20374;-76
2021/05/22 06:03:31;;;;;;;6.22;2.53;;;10.80;99.90;;;;;;5098016;28;20020;-75
2021/05/22 06:05:57;;;;;;;7.05;2.20;;;10.80;99.90;;;;;;5097096;28;20031;-76
2021/05/22 06:08:23;;;;;;;5.38;2.50;;;10.80;99.90;;;;;;5095767;28;20020;-76
2021/05/22 06:10:51;;;;;;;4.25;2.30;;;10.90;99.90;;;;;;5097171;28;20388;-75
2021/05/22 06:13:29;;;;;;;5.35;2.90;;;10.90;99.90;;;;;;5094132;28;20090;-76
2021/05/22 06:16:01;;;;;;;4.90;2.70;;;11.00;99.90;;;;;;5095079;28;20032;-75
2021/05/22 06:18:32;;;;;;;4.70;2.63;;;11.00;99.90;;;;;;5091846;28;20024;-76
2021/05/22 06:20:58;;;;;;;;;;;11.00;99.90;;;;;;5100108;28;20023;-77
2021/05/22 06:23:24;;;;;;;4.50;2.13;;;11.10;99.90;;;;;;5094719;28;19949;-76
2021/05/22 06:25:50;;;;;;;6.28;2.80;;;11.10;99.90;;;;;;5102517;28;20031;-76
2021/05/22 06:28:16;;;;;;;7.63;2.72;;;11.10;99.90;;;;;;5094855;28;20020;-76
2021/05/22 06:30:41;;;;;;;7.38;3.03;;;11.20;99.90;;;;;;5096578;28;20031;-75
2021/05/22 06:33:07;;;;;;;3.42;2.42;;;11.30;99.90;;;;;;5091592;28;20039;-75
2021/05/22 06:35:33;;;;;;;3.10;2.45;;;11.30;99.90;;;;;;5102649;28;20480;-74
2021/05/22 06:37:58;;;;;;;4.93;2.80;;;11.30;99.90;;;;;;5102645;28;20454;-75
2021/05/22 06:40:24;;;;;;;3.45;2.70;;;11.40;99.90;;;;;;5103900;28;20130;-74
2021/05/22 06:42:50;;;;;;;5.65;2.65;;;11.50;99.90;;;;;;5097562;28;20027;-75
2021/05/22 06:45:17;;;;;;;2.88;2.58;;;11.50;99.90;;;;;;5108360;28;20028;-74
2021/05/22 06:47:42;;;;;;;6.93;2.80;;;11.50;99.90;;;;;;5096039;28;20491;-74
2021/05/22 06:50:09;;;;;;;6.13;2.95;;;11.50;99.90;;;;;;5099626;28;20030;-74
2021/05/22 06:52:35;;;;;;;4.65;2.97;;;11.60;99.90;;;;;;5113792;28;20030;-74
2021/05/22 06:55:01;;;;;;;4.65;3.55;;;11.50;99.90;;;;;;5126778;28;20024;-74
2021/05/22 06:57:26;;;;;;;8.45;3.38;;;11.50;99.90;;;;;;5130315;28;20068;-73
2021/05/22 06:59:53;;;;;;;5.75;3.08;;;11.50;99.90;;;;;;5128264;28;20027;-76
2021/05/22 07:02:18;;;;;;;5.35;3.90;;;11.50;99.90;;;;;;5128875;28;20027;-75
2021/05/22 07:04:44;;;;;;;4.22;3.63;;;11.50;99.90;;;;;;5110933;28;20027;-76
2021/05/22 07:07:09;;;;;;;4.55;2.88;;;11.50;99.90;;;;;;5125153;28;20015;-76
2021/05/22 07:09:35;;;;;;;7.38;3.50;;;11.60;99.90;;;;;;5114525;27;20023;-78
2021/05/22 07:12:01;;;;;;;5.00;2.90;;;11.60;99.90;;;;;;5100929;27;20020;-74
2021/05/22 07:14:27;;;;;;;3.22;2.92;;;11.70;99.90;;;;;;5095750;27;20032;-76
2021/05/22 07:16:55;;;;;;;5.63;3.28;;;11.60;99.90;;;;;;5096356;27;20426;-76
2021/05/22 07:19:21;;;;;;;6.93;3.20;;;11.70;99.90;;;;;;5096958;27;20170;-76
2021/05/22 07:21:46;;;;;;;4.18;3.22;;;11.70;99.90;;;;;;5077574;28;20462;-78
2021/05/22 07:24:12;;;;;;;3.88;2.95;;;11.70;99.90;;;;;;5100034;27;20024;-76
2021/05/22 07:26:38;;;;;;;4.50;2.65;;;11.80;99.90;;;;;;5096263;27;20046;-75
2021/05/22 07:29:04;;;;;;;5.55;3.35;;;11.80;99.90;;;;;;5108350;27;20080;-76
2021/05/22 07:31:32;;;;;;;5.38;3.00;;;11.80;99.90;;;;;;5110447;27;20023;-76
2021/05/22 07:33:57;;;;;;;4.82;2.90;;;11.80;99.90;;;;;;5121269;27;20048;-76
2021/05/22 07:36:23;;;;;;;4.20;2.72;;;11.80;99.90;;;;;;5100914;27;20474;-77
2021/05/22 07:38:48;;;;;;;5.30;2.95;;;11.80;99.90;;;;;;5097144;27;20056;-77
2021/05/22 07:41:14;;;;;;;5.88;2.85;;;11.80;99.90;;;;;;5098018;27;20019;-78
2021/05/22 07:43:39;;;;;;;5.30;3.20;;;11.80;99.90;;;;;;5103421;27;20030;-77
2021/05/22 07:46:05;;;;;;;4.90;3.30;;;11.80;99.90;;;;;;5098374;27;20027;-76
2021/05/22 07:48:31;;;;;;;4.72;2.55;;;11.80;99.90;;;;;;5102229;27;20023;-76
2021/05/22 07:50:56;;;;;;;3.17;2.88;;;11.80;99.90;;;;;;5098461;27;20020;-77
2021/05/22 07:53:22;;;;;;;5.00;2.85;;;11.70;99.90;;;;;;5098958;27;20054;-75
2021/05/22 07:55:48;;;;;;;3.50;3.20;;;11.70;99.90;;;;;;5094983;27;20020;-77
2021/05/22 07:58:17;;;;;;;6.03;3.28;;;11.60;99.90;;;;;;5096089;27;20150;-76
2021/05/22 08:00:46;;;;;;;4.50;3.20;;;11.60;99.90;;;;;;5096238;27;20036;-76
2021/05/22 08:03:12;;;;;;;4.75;3.10;;;11.60;99.90;;;;;;5095321;27;20475;-76
2021/05/22 08:05:38;;;;;;;2.83;2.53;;;11.60;99.90;;;;;;5097138;27;20050;-76
2021/05/22 08:08:04;;;;;;;5.22;2.53;;;11.60;99.90;;;;;;5095424;27;20413;-75
2021/05/22 08:10:30;;;;;;;3.25;2.83;;;11.70;99.90;;;;;;5096198;27;20051;-76
2021/05/22 08:12:55;;;;;;;2.95;2.30;;;11.70;99.90;;;;;;5095294;27;20136;-76
2021/05/22 08:15:21;;;;;;;2.55;1.55;;;11.70;99.90;;;;;;5096646;27;20127;-75
2021/05/22 08:17:47;;;;;;;2.13;1.58;;;11.80;99.90;;;;;;5094504;27;20024;-75
2021/05/22 08:20:13;;;;;;;4.28;1.70;;;11.90;99.90;;;;;;5094618;27;20052;-76
2021/05/22 08:22:39;;;;;;;2.42;1.63;;;11.90;99.90;;;;;;5096509;27;20032;-76
2021/05/22 08:25:06;;;;;;;2.35;1.70;;;11.90;99.90;;;;;;5094358;28;20032;-76
2021/05/22 08:27:32;;;;;;;3.83;1.80;;;11.90;99.90;;;;;;5110149;27;20026;-75
2021/05/22 08:29:58;;;;;;;3.28;1.77;;;11.90;99.90;;;;;;5094187;27;20057;-76
2021/05/22 08:32:25;;;;;;;3.13;2.05;;;11.90;99.90;;;;;;5096410;27;20017;-74
2021/05/22 08:34:50;;;;;;;5.22;2.20;;;11.90;99.90;;;;;;5094509;27;20506;-75
2021/05/22 08:37:19;;;;;;;4.18;2.60;;;11.90;99.90;;;;;;5093991;27;20134;-74
2021/05/22 08:39:45;;;;;;;6.47;2.20;;;11.90;99.90;;;;;;5094868;27;20064;-73
2021/05/22 08:42:14;;;;;;;3.95;1.77;;;11.90;99.90;;;;;;5094515;27;20024;-73
2021/05/22 08:44:41;;;;;;;2.92;1.98;;;11.90;99.90;;;;;;5093631;27;20028;-73
2021/05/22 08:47:09;;;;;;;3.42;1.98;;;11.90;99.90;;;;;;5092997;28;20028;-74
2021/05/22 08:49:41;;;;;;;4.85;1.63;;;11.90;99.90;;;;;;5106346;28;20032;-73
2021/05/22 08:52:13;;;;;;;3.65;1.30;;;11.80;99.90;;;;;;5091242;28;20031;-73
2021/05/22 08:54:39;;;;;;;4.95;1.50;;;11.90;99.90;;;;;;5098973;28;20046;-73
2021/05/22 08:57:06;;;;;;;2.40;1.35;;;11.90;99.90;;;;;;5116619;27;20067;-73
2021/05/22 08:59:32;;;;;;;2.85;1.10;;;12.00;99.90;;;;;;5105454;27;20476;-73
2021/05/22 09:01:58;;;;;;;3.10;1.15;;;12.00;99.90;;;;;;5113681;27;20034;-73
2021/05/22 09:04:24;;;;;;;3.78;1.35;;;12.00;99.90;;;;;;5118510;27;20028;-73
2021/05/22 09:07:01;;;;;;;3.50;1.45;;;12.00;99.90;;;;;;5108111;27;20020;-73
2021/05/22 09:09:38;;;;;;;5.55;2.08;;;12.00;99.90;;;;;;5104847;27;20392;-74
2021/05/22 09:12:04;;;;;;;2.00;1.20;;;12.00;99.90;;;;;;5100432;27;20020;-74
2021/05/22 09:14:45;;;;;;;2.92;1.17;;;12.10;99.90;;;;;;5098009;27;20032;-74
2021/05/22 09:17:12;;;;;;;4.25;1.67;;;12.10;99.90;;;;;;5101190;27;20048;-75
2021/05/22 09:19:39;;;;;;;2.03;1.15;;;12.20;99.90;;;;;;5096664;27;20020;-74
2021/05/22 09:22:33;;;;;;;1.95;1.27;;;12.20;99.90;;;;;;5097773;27;20130;-75
2021/05/22 09:25:04;;;;;;;3.78;1.30;;;12.30;99.90;;;;;;5094877;27;20040;-75
2021/05/22 09:27:38;;;;;;;2.50;1.10;;;12.40;99.90;;;;;;5101205;27;20027;-75
2021/05/22 09:30:10;;;;;;;2.33;1.20;;;12.40;99.90;;;;;;5097233;27;20016;-73
2021/05/22 09:32:36;;;;;;;3.38;1.80;;;12.40;99.90;;;;;;5101775;27;20026;-74
2021/05/22 09:35:04;;;;;;;3.38;1.65;;;12.70;99.90;;;;;;5106654;27;20126;-74
2021/05/22 09:37:29;;;;;;;3.20;1.67;;;12.50;99.90;;;;;;5096593;28;20019;-75
2021/05/22 09:39:55;;;;;;;2.70;1.80;;;12.70;99.90;;;;;;5112493;28;20019;-77
2021/05/22 09:42:25;;;;;;;7.15;2.40;;;12.80;99.90;;;;;;5111696;28;20068;-75
2021/05/22 09:44:50;;;;;;;4.30;2.58;;;12.80;99.90;;;;;;5110501;28;20148;-76
2021/05/22 09:47:16;;;;;;;2.83;2.10;;;12.80;99.90;;;;;;5091508;28;20024;-74
2021/05/22 09:49:41;;;;;;;4.10;2.45;;;12.80;99.90;;;;;;5092049;28;20472;-75
2021/05/22 09:52:13;;;;;;;6.38;2.60;;;12.70;99.90;;;;;;5093724;28;20019;-76
2021/05/22 09:54:50;;;;;;;7.88;2.88;;;12.70;99.90;;;;;;5097013;28;20040;-75
2021/05/22 09:57:40;;;;;;;3.30;2.67;;;12.60;99.90;;;;;;5108006;28;20062;-76
2021/05/22 10:00:16;;;;;;;4.47;3.13;;;12.60;99.90;;;;;;5089992;28;20074;-75
2021/05/22 10:02:48;;;;;;;5.18;3.40;;;12.60;99.90;;;;;;5102983;28;20027;-75
2021/05/22 10:05:19;;;;;;;4.22;2.35;;;12.50;99.90;;;;;;5097144;28;20020;-75
2021/05/22 10:07:50;;;;;;;3.20;1.40;;;12.50;99.90;;;;;;5101904;28;20028;-76
2021/05/22 10:10:17;;;;;;;6.78;1.08;;;12.30;99.90;;;;;;5098430;28;20023;-77
2021/05/22 10:12:44;;;;;;;2.33;1.30;;;12.10;99.90;;;;;;5091847;28;20084;-78
2021/05/22 10:15:11;;;;;;;2.95;1.20;;;12.00;99.90;;;;;;5096558;28;20067;-76
2021/05/22 10:17:37;;;;;;;3.72;1.30;;;12.10;99.90;;;;;;5100439;28;20035;-74
2021/05/22 10:20:05;;;;;;;2.97;1.20;;;12.10;99.90;;;;;;5109300;28;20020;-76
2021/05/22 10:22:31;;;;;;;1.77;0.98;;;12.20;99.90;;;;;;5110745;28;20444;-76
2021/05/22 10:24:57;;;;;;;1.85;1.40;;;12.20;99.90;;;;;;5100004;28;20480;-76
2021/05/22 10:27:24;;;;;;;1.75;1.15;;;12.30;99.90;;;;;;5098363;28;20023;-75
2021/05/22 10:29:49;;;;;;;4.25;1.38;;;12.30;99.90;;;;;;5091819;28;20028;-77
2021/05/22 10:32:27;;;;;;;3.45;1.50;;;12.30;99.90;;;;;;5095110;28;20101;-76
2021/05/22 10:34:53;;;;;;;2.78;1.15;;;12.30;99.90;;;;;;5108235;28;20412;-77
2021/05/22 10:37:40;;;;;;;3.20;1.77;;;12.40;99.90;;;;;;5097158;28;20016;-77
2021/05/22 10:40:08;;;;;;;5.70;2.00;;;12.40;99.90;;;;;;5097508;28;20023;-77
2021/05/22 10:42:35;;;;;;;1.80;1.60;;;12.30;99.90;;;;;;5100411;27;20031;-76
2021/05/22 10:45:27;;;;;;;1.80;1.60;;;12.20;99.90;;;;;;5097619;27;20038;-77
2021/05/22 10:47:55;;;;;;;6.18;1.90;;;12.10;99.90;;;;;;5095283;28;20024;-76
2021/05/22 10:50:47;;;;;;;3.75;2.22;;;12.00;99.90;;;;;;5100537;28;20106;-76
2021/05/22 10:53:20;;;;;;;4.80;2.00;;;11.90;99.90;;;;;;5100505;28;20030;-76
2021/05/22 10:56:06;;;;;;;4.05;2.40;;;11.90;99.90;;;;;;5095473;28;20047;-77
2021/05/22 10:58:33;;;;;;;3.33;2.45;;;12.10;99.90;;;;;;5086731;27;20459;-77
2021/05/22 11:01:37;;;;;;;5.45;2.60;;;12.00;99.90;;;;;;5134733;27;20031;-77
2021/05/22 11:04:10;;;;;;;3.17;2.75;;;12.10;99.90;;;;;;5098357;27;20457;-77
2021/05/22 11:06:45;;;;;;;4.85;2.60;;;12.10;99.90;;;;;;5125932;27;20063;-77
2021/05/22 11:09:26;;;;;;;5.78;2.35;;;12.00;99.90;;;;;;5116702;27;20024;-77
2021/05/22 11:11:52;;;;;;;;;;;12.00;99.90;;;;;;5117878;27;20463;-77
2021/05/22 11:14:43;;;;;;;6.55;2.55;;;12.00;99.90;;;;;;5128511;27;19930;-76
2021/05/22 11:17:27;;;;;;;5.82;2.38;;;12.00;99.90;;;;;;5127717;27;20024;-75
2021/05/22 11:20:02;;;;;;;2.38;2.00;;;12.00;99.90;;;;;;5124304;27;20020;-76
2021/05/22 11:22:39;;;;;;;5.10;2.83;;;12.00;99.90;;;;;;5119958;27;20024;-77
2021/05/22 11:25:07;;;;;;;8.80;3.08;;;11.90;99.90;;;;;;5123165;27;20034;-76
2021/05/22 11:27:49;;;;;;;4.40;3.35;;;12.00;99.90;;;;;;5126368;27;20045;-76
2021/05/22 11:30:41;;;;;;;12.90;3.72;;;12.10;99.90;;;;;;5133068;27;20046;-78
2021/05/22 11:33:09;;;;;;;4.68;2.83;;;12.10;99.90;;;;;;5095612;27;20119;-76
2021/05/22 11:35:43;;;;;;;4.22;3.03;;;12.10;99.90;;;;;;5125078;27;20448;-76
2021/05/22 11:38:15;;;;;;;7.60;3.10;;;12.20;99.90;;;;;;5111209;27;20482;-76
2021/05/22 11:40:41;;;;;;;3.50;3.20;;;12.20;99.90;;;;;;5129207;27;20516;-76
2021/05/22 11:43:12;;;;;;;6.93;2.85;;;12.20;99.90;;;;;;5111823;27;20031;-76
2021/05/22 11:45:43;;;;;;;5.15;3.08;;;12.10;99.90;;;;;;5110520;27;20043;-77
2021/05/22 11:48:29;;;;;;;8.93;3.53;;;12.00;99.90;;;;;;5106397;27;20418;-77
2021/05/22 11:51:05;;;;;;;6.30;2.80;;;11.90;99.90;;;;;;5099218;27;20449;-77
2021/05/22 11:53:31;;;;;;;8.02;3.17;;;11.80;99.90;;;;;;5095290;27;20369;-78
2021/05/22 11:56:01;;;;;;;7.00;3.30;;;11.90;99.90;;;;;;5093264;27;20028;-76
2021/05/22 11:58:28;;;;;;;4.30;3.27;;;11.90;99.90;;;;;;5097037;27;20024;-76
2021/05/22 12:00:55;;;;;;;4.60;3.30;;;11.90;99.90;;;;;;5105892;27;20297;-77
2021/05/22 12:03:28;;;;;;;6.25;3.40;;;12.00;99.90;;;;;;5100181;27;20084;-76
2021/05/22 12:05:55;;;;;;;6.07;2.53;;;12.20;99.90;;;;;;5094304;27;20024;-77
2021/05/22 12:08:32;;;;;;;5.35;2.75;;;12.30;99.90;;;;;;5094235;27;20024;-78
2021/05/22 12:11:15;;;;;;;3.55;2.30;;;12.40;99.90;;;;;;5093710;28;20035;-77
2021/05/22 12:14:00;;;;;;;6.78;3.10;;;12.60;99.90;;;;;;5107858;27;20066;-78
2021/05/22 12:16:26;;;;;;;3.88;3.13;;;12.70;99.90;;;;;;5111475;27;20399;-76
2021/05/22 12:18:53;;;;;;;4.70;3.42;;;12.70;99.90;;;;;;5114124;27;20399;-77
2021/05/22 12:21:30;;;;;;;9.43;3.92;;;13.10;99.90;;;;;;5110472;27;20023;-77
2021/05/22 12:24:06;;;;;;;6.47;3.65;;;12.80;99.90;;;;;;5100861;27;20130;-77
2021/05/22 12:26:33;;;;;;;4.32;3.25;;;12.80;99.90;;;;;;5115473;27;20112;-79
2021/05/22 12:28:59;;;;;;;3.15;2.25;;;12.90;99.90;;;;;;5129808;27;20046;-77
2021/05/22 12:31:25;;;;;;;3.35;2.40;;;13.00;99.90;;;;;;5101770;28;20476;-76
2021/05/22 12:34:06;;;;;;;5.68;3.40;;;13.10;99.90;;;;;;5098385;28;20043;-78
2021/05/22 12:36:34;;;;;;;7.22;2.83;;;13.00;99.90;;;;;;5102648;27;20510;-79
2021/05/22 12:39:11;;;;;;;4.07;2.65;;;12.90;99.90;;;;;;5096483;27;20036;-77
2021/05/22 12:41:38;;;;;;;5.22;2.95;;;12.90;99.90;;;;;;5094241;27;20024;-77
2021/05/22 12:44:04;;;;;;;5.57;3.47;;;12.90;99.90;;;;;;5093319;27;20156;-78
2021/05/22 12:46:38;;;;;;;5.60;3.35;;;13.00;99.90;;;;;;5092040;28;20027;-77
2021/05/22 12:49:20;;;;;;;5.45;3.05;;;13.20;99.90;;;;;;5092057;28;20020;-77
2021/05/22 12:52:03;;;;;;;8.32;3.38;;;13.30;99.90;;;;;;5091033;28;20028;-77